Time;durP1;ratioP1;P1;durP2;ratioP2;P2;SDS_P1;SDS_P2;PMS_P1;PMS_P2;Temp;Humidity;BMP_temperature;BMP_pressure;BME280_temperature;BME280_humidity;BME280_pressure;Samples;Min_cycle;Max_cycle;Signal;HPM_P1;HPM_P2
2022/07/24 00:00:52;;;;;;;16.52;5.90;;;;;;;22.22;46.36;98837.28;1682378;84;21128;-79
2022/07/24 00:03:18;;;;;;;12.65;5.30;;;;;;;22.20;45.72;98832.59;1691440;84;21534;-77
2022/07/24 00:05:45;;;;;;;15.08;5.58;;;;;;;22.14;45.46;98821.98;1684837;84;21022;-78
2022/07/24 00:08:12;;;;;;;15.05;5.40;;;;;;;22.14;45.29;98827.77;1689640;85;21042;-79
2022/07/24 00:10:39;;;;;;;12.78;5.30;;;;;;;22.13;45.03;98820.80;1687463;84;21106;-78
2022/07/24 00:13:06;;;;;;;16.25;5.30;;;;;;;22.08;44.86;98813.19;1689662;84;20995;-78
2022/07/24 00:15:32;;;;;;;11.10;5.00;;;;;;;22.00;44.96;98821.75;1681642;85;21053;-78
2022/07/24 00:17:59;;;;;;;15.85;5.37;;;;;;;21.95;45.11;98826.54;1689682;84;21061;-79
2022/07/24 00:20:25;;;;;;;15.28;4.97;;;;;;;21.92;44.78;98835.19;1683024;84;21105;-78
2022/07/24 00:22:52;;;;;;;12.75;4.80;;;;;;;21.88;45.07;98835.89;1688689;85;20971;-79
2022/07/24 00:25:19;;;;;;;10.40;4.90;;;;;;;21.87;44.65;98851.42;1685361;85;21494;-77
2022/07/24 00:27:45;;;;;;;13.90;4.58;;;;;;;21.88;44.99;98901.22;1682909;84;21018;-79
2022/07/24 00:30:13;;;;;;;15.58;5.75;;;;;;;21.83;45.47;98916.13;1689134;85;21565;-78
2022/07/24 00:32:39;;;;;;;12.95;5.87;;;;;;;21.85;45.25;98893.03;1679524;84;21059;-79
2022/07/24 00:35:06;;;;;;;13.93;5.78;;;;;;;21.90;45.94;98871.02;1689663;85;21030;-78
2022/07/24 00:37:33;;;;;;;16.15;5.22;;;;;;;21.92;46.07;98901.34;1675177;84;21054;-80
2022/07/24 00:39:59;;;;;;;12.53;5.30;;;;;;;21.91;45.94;98911.59;1689826;85;21534;-79
2022/07/24 00:42:26;;;;;;;11.30;4.75;;;;;;;21.92;46.23;98900.03;1685659;85;21331;-78
2022/07/24 00:44:52;;;;;;;14.85;6.20;;;;;;;21.93;46.50;98897.76;1675583;85;20998;-78
2022/07/24 00:47:19;;;;;;;12.05;5.20;;;;;;;21.93;46.30;98897.76;1684209;85;21030;-78
2022/07/24 00:49:46;;;;;;;11.35;4.78;;;;;;;21.96;46.96;98888.25;1686242;85;21022;-78
2022/07/24 00:52:12;;;;;;;15.45;5.12;;;;;;;21.99;45.76;98890.67;1683410;84;21078;-78
2022/07/24 00:54:39;;;;;;;17.02;5.95;;;;;;;21.96;46.79;98897.51;1684624;84;21030;-79
2022/07/24 00:57:06;;;;;;;13.62;5.22;;;;;;;21.94;47.38;98889.68;1682419;84;21051;-79
2022/07/24 00:59:33;;;;;;;14.45;5.80;;;;;;;21.96;47.00;98889.08;1683444;85;21042;-78
2022/07/24 01:01:59;;;;;;;21.40;5.55;;;;;;;21.95;47.42;98895.84;1684915;84;21169;-79
2022/07/24 01:04:26;;;;;;;14.90;5.20;;;;;;;21.90;47.83;98897.48;1677247;85;21525;-78
2022/07/24 01:06:53;;;;;;;14.80;5.40;;;;;;;21.87;47.13;98897.73;1687151;84;20998;-79
2022/07/24 01:09:20;;;;;;;12.93;5.15;;;;;;;21.83;48.07;98900.25;1683280;84;21474;-79
2022/07/24 01:11:47;;;;;;;18.07;5.00;;;;;;;21.80;47.51;98897.81;1686998;85;21085;-79
2022/07/24 01:14:15;;;;;;;14.00;5.30;;;;;;;21.79;47.37;98890.85;1687147;85;20975;-79
2022/07/24 01:16:42;;;;;;;18.67;5.53;;;;;;;21.79;47.17;98900.11;1685625;85;21571;-80
2022/07/24 01:19:08;;;;;;;14.55;5.72;;;;;;;21.76;47.85;98905.13;1678551;84;21091;-80
2022/07/24 01:21:35;;;;;;;14.07;5.15;;;;;;;21.72;49.01;98901.52;1682034;85;20990;-79
2022/07/24 01:24:02;;;;;;;13.62;5.35;;;;;;;21.68;48.60;98893.44;1680107;85;21061;-79
2022/07/24 01:26:29;;;;;;;10.10;4.80;;;;;;;21.65;47.03;98889.23;1662613;85;21010;-78
2022/07/24 01:28:55;;;;;;;12.68;4.65;;;;;;;21.63;48.12;98901.73;1683875;84;21501;-79
2022/07/24 01:31:22;;;;;;;19.00;5.25;;;;;;;21.63;47.82;98894.63;1674077;84;21094;-79
2022/07/24 01:33:49;;;;;;;11.33;4.67;;;;;;;21.65;47.41;98901.97;1686423;84;21002;-78
2022/07/24 01:36:15;;;;;;;12.50;4.62;;;;;;;21.70;47.02;98904.75;1682500;85;21020;-81
2022/07/24 01:38:42;;;;;;;14.98;4.62;;;;;;;21.76;47.07;98901.65;1687098;84;21062;-80
2022/07/24 01:41:09;;;;;;;17.40;5.33;;;;;;;21.79;46.60;98901.44;1682275;85;21055;-79
2022/07/24 01:43:35;;;;;;;15.75;4.97;;;;;;;21.80;46.18;98905.27;1686230;84;21066;-79
2022/07/24 01:46:02;;;;;;;14.13;4.97;;;;;;;21.79;46.49;98913.34;1673710;84;21062;-79
2022/07/24 01:48:29;;;;;;;19.40;5.65;;;;;;;21.71;46.74;98911.27;1686376;85;21054;-78
2022/07/24 01:50:56;;;;;;;16.40;5.65;;;;;;;21.66;47.00;98912.06;1659951;85;21002;-79
2022/07/24 01:53:22;;;;;;;16.40;5.50;;;;;;;21.59;48.21;98918.78;1671137;85;20998;-79
2022/07/24 01:55:53;;;;;;;12.75;5.70;;;;;;;21.54;47.99;98922.23;1671847;85;21086;-78
2022/07/24 01:58:19;;;;;;;16.90;6.05;;;;;;;21.50;48.07;98920.77;1694958;84;21518;-79
2022/07/24 02:00:47;;;;;;;16.20;6.20;;;;;;;21.42;48.92;98919.97;1666353;85;21116;-79
2022/07/24 02:03:14;;;;;;;16.32;5.80;;;;;;;21.39;49.30;98925.50;1695274;84;21491;-78
2022/07/24 02:05:40;;;;;;;12.28;5.17;;;;;;;21.36;49.11;98925.70;1688953;84;21422;-78
2022/07/24 02:08:07;;;;;;;12.33;5.47;;;;;;;21.31;48.51;98923.41;1698941;84;21058;-78
2022/07/24 02:10:34;;;;;;;15.93;6.30;;;;;;;21.20;48.65;98921.52;1704924;84;21049;-78
2022/07/24 02:13:01;;;;;;;15.15;4.92;;;;;;;21.10;50.14;98925.77;1676598;84;21562;-78
2022/07/24 02:15:28;;;;;;;18.65;5.55;;;;;;;21.04;49.77;98919.60;1695318;84;21030;-77
2022/07/24 02:17:58;;;;;;;18.75;5.37;;;;;;;20.98;49.86;98920.88;1682372;84;21574;-79
2022/07/24 02:20:26;;;;;;;13.62;5.78;;;;;;;20.93;49.97;98924.34;1695129;84;21041;-78
2022/07/24 02:22:54;;;;;;;16.60;5.95;;;;;;;20.89;49.32;98918.91;1685905;84;21061;-78
2022/07/24 02:25:21;;;;;;;15.48;6.03;;;;;;;20.88;49.21;98922.97;1684656;84;21073;-79
2022/07/24 02:27:48;;;;;;;16.93;6.55;;;;;;;20.88;49.01;98921.65;1676523;84;21107;-79
2022/07/24 02:30:19;;;;;;;21.17;6.40;;;;;;;20.85;49.21;98919.59;1683604;84;21037;-79
2022/07/24 02:32:46;;;;;;;15.75;6.33;;;;;;;20.88;48.78;98922.48;1678190;84;20990;-80
2022/07/24 02:35:12;;;;;;;20.17;7.47;;;;;;;20.86;48.69;98914.66;1686197;84;21045;-80
2022/07/24 02:37:42;;;;;;;17.75;6.72;;;;;;;20.86;49.01;98922.59;1701615;84;20986;-80
2022/07/24 02:40:11;;;;;;;11.93;6.80;;;;;;;20.80;49.05;98923.02;1699363;84;21541;-78
2022/07/24 02:42:38;;;;;;;17.42;6.30;;;;;;;20.82;48.56;98921.59;1677356;85;21547;-79
2022/07/24 02:45:06;;;;;;;15.68;5.92;;;;;;;20.83;48.21;98928.10;1676026;84;21526;-79
2022/07/24 02:47:34;;;;;;;14.93;5.37;;;;;;;20.81;48.23;98932.65;1684382;84;21025;-78
2022/07/24 02:50:00;;;;;;;15.90;5.78;;;;;;;20.84;48.04;98940.34;1707741;83;21014;-79
2022/07/24 02:52:27;;;;;;;16.20;6.30;;;;;;;20.88;47.76;98940.14;1738496;82;21003;-79
2022/07/24 02:54:54;;;;;;;16.37;5.50;;;;;;;20.90;47.61;98939.08;1709112;82;21029;-79
2022/07/24 02:57:21;;;;;;;19.82;5.75;;;;;;;20.92;48.09;98933.20;1716729;82;21017;-79
2022/07/24 02:59:51;;;;;;;15.60;6.17;;;;;;;20.94;48.11;98939.71;1708164;82;21026;-79
2022/07/24 03:02:16;;;;;;;16.25;6.35;;;;;;;20.93;47.97;98938.01;1716259;83;21098;-79
2022/07/24 03:04:43;;;;;;;17.52;5.90;;;;;;;20.93;48.60;98932.72;1711044;82;21035;-79
2022/07/24 03:07:09;;;;;;;13.30;5.83;;;;;;;20.83;48.57;98926.78;1718093;83;21507;-79
2022/07/24 03:09:36;;;;;;;15.13;6.20;;;;;;;20.79;48.91;98926.63;1710970;82;21576;-79
2022/07/24 03:12:02;;;;;;;16.50;6.33;;;;;;;20.76;49.46;98925.51;1716680;83;21018;-79
2022/07/24 03:14:29;;;;;;;11.48;5.53;;;;;;;20.71;48.68;98928.97;1712293;82;21097;-78
2022/07/24 03:16:55;;;;;;;16.85;5.95;;;;;;;20.66;49.65;98929.75;1709533;82;21030;-78
2022/07/24 03:19:22;;;;;;;12.85;5.67;;;;;;;20.61;50.45;98936.67;1713154;83;21022;-79
2022/07/24 03:21:48;;;;;;;15.80;6.15;;;;;;;20.58;51.04;98929.41;1704336;82;21005;-78
2022/07/24 03:24:16;;;;;;;14.87;5.40;;;;;;;20.54;51.08;98920.00;1715503;83;21073;-78
2022/07/24 03:26:42;;;;;;;17.35;6.10;;;;;;;20.54;49.61;98928.77;1712968;82;21085;-77
2022/07/24 03:29:09;;;;;;;17.73;6.00;;;;;;;20.49;50.42;98924.74;1724132;82;21014;-80
2022/07/24 03:31:36;;;;;;;19.62;6.45;;;;;;;20.48;49.84;98917.79;1713099;82;20990;-79
2022/07/24 03:34:02;;;;;;;21.02;6.00;;;;;;;20.45;49.72;98925.42;1716541;82;21045;-78
2022/07/24 03:36:29;;;;;;;19.07;6.10;;;;;;;20.44;50.77;98925.91;1715220;82;21009;-78
2022/07/24 03:38:56;;;;;;;17.67;5.92;;;;;;;20.43;49.42;98925.55;1685011;83;21003;-78
2022/07/24 03:41:22;;;;;;;17.82;6.00;;;;;;;20.43;50.69;98918.95;1717111;83;20998;-79
2022/07/24 03:43:49;;;;;;;12.07;6.00;;;;;;;20.49;50.85;98922.94;1722484;82;21070;-78
2022/07/24 03:46:15;;;;;;;12.73;5.92;;;;;;;20.49;49.57;98926.90;1712960;82;21005;-79
2022/07/24 03:48:42;;;;;;;19.85;6.28;;;;;;;20.51;50.56;98919.72;1705049;83;21069;-78
2022/07/24 03:51:08;;;;;;;19.23;6.28;;;;;;;20.59;49.85;98916.58;1714275;83;20990;-79
2022/07/24 03:53:35;;;;;;;14.63;5.78;;;;;;;20.64;50.40;98912.67;1705034;83;21061;-79
2022/07/24 03:56:08;;;;;;;15.43;5.80;;;;;;;20.65;49.46;98905.59;1714794;82;21447;-78
2022/07/24 03:58:34;;;;;;;19.75;6.80;;;;;;;20.69;50.91;98904.91;1716908;83;21066;-80
2022/07/24 04:01:02;;;;;;;15.13;5.80;;;;;;;20.76;50.47;98904.37;1715487;83;21042;-80
2022/07/24 04:03:29;;;;;;;12.90;5.87;;;;;;;20.85;49.97;98906.38;1713459;82;21037;-78
2022/07/24 04:05:55;;;;;;;15.65;5.80;;;;;;;20.92;50.07;98906.78;1723852;82;21022;-79
2022/07/24 04:08:22;;;;;;;14.28;5.65;;;;;;;20.99;49.87;98902.77;1708293;83;21100;-79
2022/07/24 04:10:49;;;;;;;15.18;5.37;;;;;;;21.05;49.73;98898.84;1716916;83;21538;-79
2022/07/24 04:13:15;;;;;;;15.95;5.40;;;;;;;21.07;49.07;98890.33;1704772;83;21006;-77
2022/07/24 04:15:42;;;;;;;21.30;6.05;;;;;;;21.11;49.06;98896.21;1716633;83;21042;-77
2022/07/24 04:18:09;;;;;;;11.95;5.03;;;;;;;21.19;49.63;98892.08;1712626;82;21085;-78
2022/07/24 04:20:35;;;;;;;12.40;5.50;;;;;;;21.28;49.21;98897.66;1716722;83;21481;-77
2022/07/24 04:23:02;;;;;;;10.28;4.60;;;;;;;21.36;50.19;98908.52;1708653;83;20974;-78
2022/07/24 04:25:28;;;;;;;13.20;4.85;;;;;;;21.40;48.80;98910.81;1691828;83;21037;-77
2022/07/24 04:27:55;;;;;;;13.22;4.92;;;;;;;21.43;48.57;98906.67;1704784;83;21053;-78
2022/07/24 04:30:21;;;;;;;8.75;4.62;;;;;;;21.50;48.93;98904.41;1710200;82;21015;-79
2022/07/24 04:32:48;;;;;;;8.15;4.05;;;;;;;21.60;49.30;98893.52;1714362;83;21001;-79
2022/07/24 04:35:15;;;;;;;11.93;4.28;;;;;;;21.70;49.52;98887.55;1684948;85;21026;-77
2022/07/24 04:37:41;;;;;;;10.28;4.53;;;;;;;21.82;49.48;98887.95;1717174;83;20982;-79
2022/07/24 04:40:10;;;;;;;9.75;4.80;;;;;;;21.92;48.95;98891.59;1707502;82;21033;-78
2022/07/24 04:42:36;;;;;;;13.55;4.42;;;;;;;22.02;48.74;98895.27;1685815;83;21530;-79
2022/07/24 04:45:04;;;;;;;10.60;5.05;;;;;;;22.11;48.34;98896.36;1711330;83;20998;-79
2022/07/24 04:47:31;;;;;;;11.15;5.08;;;;;;;22.22;48.25;98899.50;1716894;83;21489;-79
2022/07/24 04:49:58;;;;;;;14.60;5.60;;;;;;;22.31;47.91;98901.98;1703765;83;21057;-79
2022/07/24 04:52:24;;;;;;;11.55;5.42;;;;;;;22.39;47.37;98913.66;1691147;84;21661;-80
2022/07/24 04:54:51;;;;;;;11.25;5.40;;;;;;;22.41;47.23;98906.44;1665631;84;21098;-80
2022/07/24 04:57:17;;;;;;;13.70;5.47;;;;;;;22.46;47.11;98897.29;1691203;84;21061;-79
2022/07/24 04:59:44;;;;;;;14.70;5.85;;;;;;;22.48;46.83;98896.69;1688609;84;21015;-80
2022/07/24 05:02:11;;;;;;;17.35;5.80;;;;;;;22.51;46.60;98907.06;1688567;84;21047;-78
2022/07/24 05:04:37;;;;;;;16.30;5.47;;;;;;;22.54;46.52;98904.16;1690288;84;21025;-78
2022/07/24 05:07:04;;;;;;;15.50;5.70;;;;;;;22.57;46.37;98903.45;1693457;84;21022;-79
2022/07/24 05:09:31;;;;;;;15.43;6.50;;;;;;;22.62;46.29;98921.63;1690222;84;21062;-78
2022/07/24 05:11:58;;;;;;;14.47;6.25;;;;;;;22.67;46.30;98925.26;1689299;83;21035;-79
2022/07/24 05:14:24;;;;;;;15.72;6.20;;;;;;;22.71;46.31;98907.67;1691194;84;21031;-79
2022/07/24 05:16:51;;;;;;;15.53;5.97;;;;;;;22.76;46.33;98918.77;1691833;83;21518;-78
2022/07/24 05:19:17;;;;;;;16.52;5.60;;;;;;;22.80;46.43;98937.89;1660583;85;21047;-78
2022/07/24 05:21:44;;;;;;;15.03;6.50;;;;;;;22.71;47.85;98924.89;1688205;83;21463;-79
2022/07/24 05:24:11;;;;;;;18.87;5.25;;;;;;;22.68;48.03;98940.18;1687204;84;21031;-79
2022/07/24 05:26:37;;;;;;;17.42;5.25;;;;;;;22.66;48.11;98962.84;1685193;84;20966;-79
2022/07/24 05:29:07;;;;;;;12.65;5.50;;;;;;;22.56;48.99;98937.54;1697630;84;21006;-79
2022/07/24 05:31:34;;;;;;;12.73;5.33;;;;;;;22.53;48.89;98928.48;1692754;84;21069;-78
2022/07/24 05:34:02;;;;;;;14.50;5.95;;;;;;;22.53;48.37;98940.41;1694359;83;21003;-78
2022/07/24 05:36:29;;;;;;;15.90;5.25;;;;;;;22.62;47.64;98928.25;1691439;84;21010;-77
2022/07/24 05:38:56;;;;;;;14.43;5.10;;;;;;;22.69;47.10;98937.91;1693460;83;21070;-78
2022/07/24 05:41:22;;;;;;;13.05;5.17;;;;;;;22.80;46.49;98937.89;1699747;83;21026;-79
2022/07/24 05:43:49;;;;;;;10.88;4.42;;;;;;;22.91;45.57;98943.20;1695102;83;21030;-79
2022/07/24 05:46:15;;;;;;;11.08;4.80;;;;;;;23.05;45.61;98955.41;1696523;83;21054;-78
2022/07/24 05:48:42;;;;;;;15.03;5.20;;;;;;;23.15;45.36;98949.73;1660128;86;21027;-78
2022/07/24 05:51:09;;;;;;;13.03;4.67;;;;;;;23.23;45.04;98931.39;1668873;85;21030;-79
2022/07/24 05:53:35;;;;;;;13.25;4.58;;;;;;;23.31;43.91;98945.38;1686379;84;21511;-80
2022/07/24 05:56:02;;;;;;;14.43;4.40;;;;;;;23.37;44.08;98950.67;1671323;85;21055;-80
2022/07/24 05:58:28;;;;;;;11.50;4.67;;;;;;;23.42;43.96;98952.48;1694714;84;21034;-81
2022/07/24 06:00:55;;;;;;;12.20;5.33;;;;;;;23.45;43.67;98958.02;1680955;84;21253;-81
2022/07/24 06:03:22;;;;;;;15.25;4.90;;;;;;;23.49;43.98;98944.38;1692739;84;20967;-80
2022/07/24 06:05:48;;;;;;;9.90;3.95;;;;;;;23.58;43.98;98953.41;1691818;84;21074;-80
2022/07/24 06:08:15;;;;;;;10.48;4.50;;;;;;;23.61;43.91;98948.67;1689916;83;20987;-78
2022/07/24 06:10:42;;;;;;;12.90;4.90;;;;;;;23.69;43.47;98958.67;1700853;83;21054;-79
2022/07/24 06:13:09;;;;;;;17.75;4.75;;;;;;;23.80;43.58;98953.86;1689963;84;21475;-80
2022/07/24 06:15:36;;;;;;;12.10;4.25;;;;;;;23.95;43.11;98963.69;1695342;84;20980;-80
2022/07/24 06:18:03;;;;;;;11.22;4.47;;;;;;;24.07;42.99;98967.14;1670735;85;20999;-79
2022/07/24 06:20:30;;;;;;;12.37;4.65;;;;;;;24.22;42.51;98964.55;1688274;84;21543;-80
2022/07/24 06:22:56;;;;;;;12.65;4.90;;;;;;;24.40;42.26;98964.31;1686522;84;21030;-80
2022/07/24 06:25:23;;;;;;;14.13;4.62;;;;;;;24.57;42.20;98963.39;1687709;84;21543;-80
2022/07/24 06:27:53;;;;;;;14.00;4.90;;;;;;;24.74;41.40;98968.61;1701035;84;21511;-80
2022/07/24 06:30:26;;;;;;;19.48;6.05;;;;;;;24.94;40.49;98963.73;1690171;84;21011;-79
2022/07/24 06:32:57;;;;;;;12.58;4.47;;;;;;;25.16;39.82;98963.19;1700515;84;21086;-80
2022/07/24 06:35:25;;;;;;;9.35;4.45;;;;;;;25.37;38.88;98955.18;1693342;83;21023;-79
2022/07/24 06:37:52;;;;;;;12.88;4.80;;;;;;;25.51;38.89;98959.27;1695511;84;21467;-78
2022/07/24 06:40:19;;;;;;;10.80;4.37;;;;;;;25.59;38.80;98942.13;1692902;83;21002;-79
2022/07/24 06:42:48;;;;;;;12.75;4.30;;;;;;;25.65;38.69;98935.41;1697631;84;21026;-80
2022/07/24 06:45:15;;;;;;;13.08;4.42;;;;;;;25.71;38.56;98935.69;1686143;84;21041;-79
2022/07/24 06:47:43;;;;;;;9.98;5.08;;;;;;;25.78;38.21;98931.97;1670956;85;20999;-79
2022/07/24 06:50:12;;;;;;;9.78;4.45;;;;;;;25.92;37.98;98930.24;1703567;83;21502;-79
2022/07/24 06:52:39;;;;;;;10.60;4.67;;;;;;;26.10;37.90;98926.87;1714196;82;21065;-79
2022/07/24 06:55:08;;;;;;;15.08;5.30;;;;;;;26.29;38.05;98926.02;1716299;82;21617;-80
2022/07/24 06:57:35;;;;;;;9.73;4.42;;;;;;;26.52;37.66;98919.86;1713260;83;21017;-79
2022/07/24 07:00:03;;;;;;;9.78;4.22;;;;;;;26.74;37.28;98907.55;1718838;82;21526;-79
2022/07/24 07:02:30;;;;;;;16.15;5.10;;;;;;;26.94;36.45;98908.81;1710695;82;21005;-80
2022/07/24 07:04:56;;;;;;;13.25;4.87;;;;;;;26.99;36.84;98904.69;1715268;82;21066;-80
2022/07/24 07:07:24;;;;;;;15.13;5.00;;;;;;;27.08;36.80;98895.45;1685116;83;21507;-79
2022/07/24 07:09:50;;;;;;;11.68;4.83;;;;;;;27.13;36.60;98903.35;1686494;85;21557;-80
2022/07/24 07:12:17;;;;;;;12.95;5.00;;;;;;;27.11;36.27;98897.33;1680261;83;21069;-78
2022/07/24 07:14:44;;;;;;;10.38;4.60;;;;;;;27.15;36.59;98893.38;1684438;83;21019;-80
2022/07/24 07:17:10;;;;;;;11.15;4.42;;;;;;;27.13;36.62;98895.85;1684457;83;21481;-78
2022/07/24 07:19:37;;;;;;;12.93;4.33;;;;;;;27.13;36.51;98893.19;1681400;83;21034;-79
2022/07/24 07:22:03;;;;;;;13.48;4.80;;;;;;;27.08;36.36;98869.62;1683018;85;21490;-78
2022/07/24 07:24:30;;;;;;;12.35;5.00;;;;;;;27.02;36.60;98876.03;1686329;84;21054;-80
2022/07/24 07:26:56;;;;;;;14.95;4.97;;;;;;;27.03;36.82;98878.56;1684491;83;21099;-79
2022/07/24 07:29:23;;;;;;;10.70;4.67;;;;;;;26.96;36.95;98881.50;1688310;83;21042;-79
2022/07/24 07:31:49;;;;;;;11.85;4.90;;;;;;;26.93;37.09;98890.61;1690478;83;20975;-80
2022/07/24 07:34:16;;;;;;;11.22;4.60;;;;;;;26.97;37.14;98897.33;1682469;83;21013;-80
2022/07/24 07:36:43;;;;;;;16.30;4.92;;;;;;;27.00;37.16;98893.55;1718455;82;21022;-79
2022/07/24 07:39:10;;;;;;;10.55;4.70;;;;;;;27.00;37.09;98892.21;1711707;82;21447;-79
2022/07/24 07:41:37;;;;;;;9.28;4.70;;;;;;;27.05;36.89;98908.59;1717791;82;21142;-80
2022/07/24 07:44:04;;;;;;;12.45;5.08;;;;;;;27.10;36.88;98906.84;1702720;82;21455;-78
2022/07/24 07:46:31;;;;;;;14.38;4.78;;;;;;;27.16;36.82;98899.06;1717273;82;21022;-79
2022/07/24 07:48:57;;;;;;;13.30;4.33;;;;;;;27.18;36.62;98894.42;1710090;83;21026;-80
2022/07/24 07:51:24;;;;;;;11.43;5.08;;;;;;;27.25;36.54;98888.52;1708296;82;22190;-79
2022/07/24 07:53:51;;;;;;;15.30;5.37;;;;;;;27.23;36.22;98894.46;1715417;82;21010;-80
2022/07/24 07:56:17;;;;;;;12.40;4.90;;;;;;;27.27;36.53;98895.87;1716763;82;21572;-79
2022/07/24 07:58:44;;;;;;;12.35;4.75;;;;;;;27.31;36.19;98891.91;1712338;82;20998;-80
2022/07/24 08:01:11;;;;;;;11.85;5.45;;;;;;;27.30;35.97;98891.58;1717962;82;21643;-80
2022/07/24 08:03:37;;;;;;;9.00;4.50;;;;;;;27.34;36.34;98891.13;1714730;82;21609;-79
2022/07/24 08:06:05;;;;;;;10.90;4.45;;;;;;;27.38;36.28;98889.00;1711533;82;21025;-79
2022/07/24 08:08:31;;;;;;;12.23;4.92;;;;;;;27.44;36.17;98891.56;1716752;82;21490;-79
2022/07/24 08:10:58;;;;;;;14.85;5.20;;;;;;;27.47;36.18;98890.74;1708236;83;21025;-79
2022/07/24 08:13:24;;;;;;;13.20;5.33;;;;;;;27.56;36.27;98891.17;1720265;82;21287;-80
2022/07/24 08:15:51;;;;;;;15.58;5.35;;;;;;;27.65;36.35;98900.09;1712718;82;21021;-80
2022/07/24 08:18:17;;;;;;;10.68;4.80;;;;;;;27.79;36.34;98898.72;1711422;82;21028;-79
2022/07/24 08:20:44;;;;;;;9.45;4.53;;;;;;;27.92;36.34;98895.20;1708047;83;21013;-80
2022/07/24 08:23:11;;;;;;;13.30;5.03;;;;;;;28.09;36.24;98895.32;1733381;82;20976;-80
2022/07/24 08:25:37;;;;;;;11.48;4.62;;;;;;;28.26;35.96;98890.44;1714561;83;21581;-79
2022/07/24 08:28:04;;;;;;;10.55;5.30;;;;;;;28.47;35.93;98896.77;1689729;83;21034;-80
2022/07/24 08:30:31;;;;;;;13.28;5.08;;;;;;;28.68;35.46;98895.06;1694196;82;21069;-80
2022/07/24 08:32:57;;;;;;;17.92;5.00;;;;;;;28.89;34.95;98894.67;1715252;83;21022;-79
2022/07/24 08:35:24;;;;;;;12.15;5.15;;;;;;;29.06;34.97;98890.20;1714037;82;21045;-80
2022/07/24 08:37:50;;;;;;;9.28;5.65;;;;;;;29.20;34.74;98892.80;1720093;82;21006;-80
2022/07/24 08:40:17;;;;;;;13.53;5.78;;;;;;;29.40;34.51;98893.86;1727477;82;21041;-80
2022/07/24 08:42:44;;;;;;;9.65;5.22;;;;;;;29.57;33.71;98893.41;1696274;83;21070;-80
2022/07/24 08:45:11;;;;;;;9.73;5.60;;;;;;;29.64;34.03;98893.05;1704309;83;21478;-80
2022/07/24 08:47:41;;;;;;;10.18;4.97;;;;;;;29.78;33.68;98891.59;1703149;82;21349;-79
2022/07/24 08:50:10;;;;;;;12.53;5.53;;;;;;;29.91;33.62;98890.09;1725446;82;21028;-80
2022/07/24 08:52:38;;;;;;;13.00;5.65;;;;;;;30.06;33.66;98892.95;1686833;83;21397;-81
2022/07/24 08:55:06;;;;;;;10.30;4.62;;;;;;;30.21;33.17;98888.24;1699206;84;20984;-80
2022/07/24 08:57:33;;;;;;;14.23;5.33;;;;;;;30.39;32.93;98889.41;1688936;83;21069;-79
2022/07/24 09:00:00;;;;;;;8.68;5.10;;;;;;;30.54;33.09;98886.38;1692843;83;21022;-79
2022/07/24 09:02:27;;;;;;;12.15;5.33;;;;;;;30.66;32.65;98886.33;1703701;83;21576;-80
2022/07/24 09:05:02;;;;;;;10.32;5.28;;;;;;;30.80;32.62;98893.30;1693732;84;20995;-80
2022/07/24 09:07:30;;;;;;;11.90;5.20;;;;;;;30.91;32.37;98890.28;1660072;85;21061;-80
2022/07/24 09:10:07;;;;;;;8.13;4.92;;;;;;;31.02;32.00;98891.25;1718592;82;21057;-80
2022/07/24 09:12:45;;;;;;;12.80;5.05;;;;;;;31.19;31.87;98882.59;1706354;83;21018;-80
2022/07/24 09:15:17;;;;;;;16.48;6.25;;;;;;;31.33;31.35;98883.17;1681664;83;21051;-79
2022/07/24 09:17:54;;;;;;;7.62;4.78;;;;;;;31.44;31.19;98877.92;1700493;83;21023;-79
2022/07/24 09:20:22;;;;;;;11.53;4.92;;;;;;;31.61;30.87;98876.48;1688298;83;21018;-81
2022/07/24 09:22:50;;;;;;;9.95;4.95;;;;;;;31.77;30.72;98882.25;1703741;83;21085;-80
2022/07/24 09:25:21;;;;;;;9.03;4.85;;;;;;;31.93;30.45;98883.97;1689664;84;21022;-80
2022/07/24 09:27:52;;;;;;;12.93;5.00;;;;;;;32.06;30.11;98876.98;1706930;83;21086;-80
2022/07/24 09:30:36;;;;;;;11.75;5.12;;;;;;;32.09;30.07;98874.44;1679191;83;21054;-81
2022/07/24 09:33:06;;;;;;;11.68;5.17;;;;;;;32.08;29.92;98871.44;1707689;83;21066;-80
2022/07/24 09:35:39;;;;;;;10.53;4.53;;;;;;;32.08;29.65;98874.95;1679569;84;21029;-80
2022/07/24 09:38:12;;;;;;;7.25;4.58;;;;;;;32.10;29.64;98868.88;1710125;84;21030;-79
2022/07/24 09:40:46;;;;;;;9.45;5.28;;;;;;;32.19;29.55;98870.14;1687158;84;21054;-80
2022/07/24 09:43:26;;;;;;;14.90;5.40;;;;;;;32.14;29.45;98876.08;1712974;84;21545;-79
2022/07/24 09:46:04;;;;;;;9.23;4.72;;;;;;;32.14;29.69;98870.70;1697081;83;21045;-80
2022/07/24 09:48:40;;;;;;;10.72;5.53;;;;;;;32.07;29.16;98868.41;1708907;84;21552;-81
2022/07/24 09:51:16;;;;;;;8.53;4.72;;;;;;;32.04;29.44;98860.72;1704587;83;21026;-81
2022/07/24 09:53:46;;;;;;;12.33;5.08;;;;;;;32.04;29.40;98870.13;1719361;83;21065;-81
2022/07/24 09:56:16;;;;;;;9.80;4.75;;;;;;;32.05;29.68;98861.89;1706714;82;21595;-78
2022/07/24 09:58:54;;;;;;;6.90;4.65;;;;;;;32.07;29.81;98859.00;1703187;83;21673;-79
2022/07/24 10:01:24;;;;;;;10.80;4.87;;;;;;;32.12;29.73;98860.64;1683035;83;21062;-80
2022/07/24 10:03:53;;;;;;;7.47;5.22;;;;;;;32.15;29.73;98861.60;1688737;83;21030;-79
2022/07/24 10:06:25;;;;;;;9.65;4.92;;;;;;;32.17;29.47;98844.80;1679228;83;21003;-79
2022/07/24 10:08:54;;;;;;;11.28;5.20;;;;;;;32.29;29.66;98846.02;1690210;85;21022;-80
2022/07/24 10:11:21;;;;;;;10.98;4.85;;;;;;;32.51;29.49;98839.39;1684717;85;21033;-81
2022/07/24 10:13:50;;;;;;;10.88;5.00;;;;;;;32.76;29.09;98852.58;1664058;85;21798;-81
2022/07/24 10:16:31;;;;;;;8.28;4.55;;;;;;;32.97;28.55;98835.14;1678738;83;21097;-81
2022/07/24 10:19:01;;;;;;;11.63;4.90;;;;;;;33.17;28.76;98821.10;1691366;85;21062;-82
2022/07/24 10:21:40;;;;;;;11.45;5.00;;;;;;;33.36;28.34;98833.92;1683570;85;21293;-82
2022/07/24 10:24:15;;;;;;;6.67;4.50;;;;;;;33.50;28.27;98822.77;1692622;85;21018;-84
2022/07/24 10:26:49;;;;;;;7.42;4.28;;;;;;;33.66;27.95;98827.08;1684998;83;21025;-81
2022/07/24 10:29:23;;;;;;;23.92;5.15;;;;;;;33.76;27.60;98820.02;1684734;85;21006;-81
2022/07/24 10:31:54;;;;;;;9.48;4.70;;;;;;;33.84;26.99;98818.03;1671154;85;21019;-81
2022/07/24 10:34:47;;;;;;;11.85;5.12;;;;;;;34.00;27.17;98814.70;1680799;84;21058;-80
2022/07/24 10:37:28;;;;;;;12.30;4.62;;;;;;;34.13;26.58;98806.70;1672416;85;21033;-80
2022/07/24 10:40:29;;;;;;;11.48;4.62;;;;;;;34.20;27.00;98813.02;1682845;83;21593;-81
2022/07/24 10:43:12;;;;;;;8.65;4.58;;;;;;;34.32;26.70;98816.49;1690207;83;21065;-81
2022/07/24 10:45:45;;;;;;;9.18;4.25;;;;;;;34.38;26.21;98813.86;1685058;85;21090;-82
2022/07/24 10:48:26;;;;;;;7.85;3.22;;;;;;;34.47;25.80;98806.41;1689612;83;21045;-81
2022/07/24 10:51:07;;;;;;;5.20;3.27;;;;;;;34.54;24.11;98814.04;1683045;85;21104;-80
2022/07/24 10:53:50;;;;;;;5.37;3.10;;;;;;;34.64;23.27;98808.27;1677877;84;21018;-81
2022/07/24 10:56:29;;;;;;;8.05;3.33;;;;;;;34.89;22.28;98817.22;1684448;84;21026;-80
2022/07/24 10:59:09;;;;;;;6.58;3.27;;;;;;;34.98;22.34;98807.38;1657803;85;21490;-80
2022/07/24 11:01:44;;;;;;;7.10;3.22;;;;;;;35.06;22.76;98799.62;1685066;85;21690;-82
2022/07/24 11:04:25;;;;;;;6.37;3.92;;;;;;;34.88;22.32;98798.84;1684742;85;21045;-81
2022/07/24 11:07:12;;;;;;;9.60;3.37;;;;;;;34.83;22.31;98792.67;1681255;84;21000;-81
2022/07/24 11:10:07;;;;;;;6.00;3.15;;;;;;;34.71;22.62;98788.08;1682645;84;21062;-81
2022/07/24 11:12:39;;;;;;;4.22;3.47;;;;;;;34.66;23.02;98791.39;1675360;84;21035;-81
2022/07/24 11:17:53;;;;;;;5.53;3.35;;;;;;;34.70;22.67;98783.70;1685584;84;21010;-81
2022/07/24 11:20:21;;;;;;;11.38;3.77;;;;;;;34.43;22.68;98789.78;1679359;84;21041;-81
2022/07/24 11:22:52;;;;;;;6.65;3.70;;;;;;;34.40;22.68;98778.06;1685811;84;20990;-80
2022/07/24 11:25:30;;;;;;;7.08;3.58;;;;;;;34.39;22.63;98789.05;1682375;84;21536;-81
2022/07/24 11:28:11;;;;;;;8.70;4.00;;;;;;;34.37;22.48;98788.41;1686167;84;21082;-81
2022/07/24 11:30:44;;;;;;;5.83;3.52;;;;;;;34.35;22.82;98789.13;1684563;85;21082;-82
2022/07/24 11:33:14;;;;;;;9.13;3.98;;;;;;;34.35;22.91;98790.48;1679331;84;21525;-81
2022/07/24 11:35:41;;;;;;;8.20;3.60;;;;;;;34.50;22.51;98788.48;1688852;84;21050;-81